Time;durP1;ratioP1;P1;durP2;ratioP2;P2;SDS_P1;SDS_P2;PMS_P1;PMS_P2;Temp;Humidity;BMP_temperature;BMP_pressure;BME280_temperature;BME280_humidity;BME280_pressure;Samples;Min_cycle;Max_cycle;Signal;HPM_P1;HPM_P2
2021/04/14 00:01:57;;;;;;;18.45;10.93;;;;;;;2.96;64.22;103210.03;4999437;28;20058;-72
2021/04/14 00:04:25;;;;;;;16.65;10.70;;;;;;;2.90;64.05;103211.91;4995684;28;20085;-73
2021/04/14 00:06:59;;;;;;;19.80;10.55;;;;;;;2.90;64.50;103212.78;4988256;28;20115;-72
2021/04/14 00:09:27;;;;;;;20.33;11.32;;;;;;;2.87;64.12;103201.63;5006027;28;20060;-72
2021/04/14 00:11:54;;;;;;;18.75;11.18;;;;;;;2.91;65.26;103211.88;4997513;28;20077;-72
2021/04/14 00:14:20;;;;;;;17.70;10.98;;;;;;;2.92;64.94;103205.81;4990244;28;20061;-72
2021/04/14 00:16:46;;;;;;;20.60;11.00;;;;;;;2.90;64.92;103202.41;4999745;28;20062;-72
2021/04/14 00:19:13;;;;;;;18.73;11.20;;;;;;;2.94;65.54;103206.63;4986967;28;20072;-72
2021/04/14 00:21:40;;;;;;;16.63;10.48;;;;;;;2.90;67.01;103199.81;4997374;28;20084;-72
2021/04/14 00:24:10;;;;;;;18.05;11.00;;;;;;;2.96;65.38;103194.47;4997017;28;20116;-72
2021/04/14 00:26:41;;;;;;;18.15;11.10;;;;;;;3.01;66.42;103196.09;4991874;28;20069;-72
2021/04/14 00:29:08;;;;;;;18.55;10.13;;;;;;;3.11;65.30;103189.75;4958002;28;20213;-72
2021/04/14 00:31:37;;;;;;;17.60;10.98;;;;;;;3.09;65.42;103197.56;4986487;28;20450;-72
2021/04/14 00:34:18;;;;;;;18.70;10.63;;;;;;;3.12;65.49;103189.72;4999682;28;20134;-71
2021/04/14 00:36:46;;;;;;;17.00;10.00;;;;;;;3.19;66.62;103177.44;5005279;28;20053;-72
2021/04/14 00:39:22;;;;;;;18.40;10.02;;;;;;;3.27;65.97;103179.84;4981939;28;20139;-72
2021/04/14 00:41:50;;;;;;;20.23;10.80;;;;;;;3.30;65.30;103180.59;5006462;28;20050;-72
2021/04/14 00:44:17;;;;;;;16.38;10.02;;;;;;;3.33;65.41;103179.66;4995290;28;20111;-72
2021/04/14 00:46:43;;;;;;;17.25;9.90;;;;;;;3.35;65.95;103177.88;5004317;28;20084;-72
2021/04/14 00:49:12;;;;;;;20.08;11.18;;;;;;;3.29;66.84;103180.63;5005610;28;20480;-72
2021/04/14 00:51:40;;;;;;;18.98;10.95;;;;;;;3.28;66.74;103177.22;4999497;28;20114;-72
2021/04/14 00:54:06;;;;;;;18.55;10.82;;;;;;;3.28;66.93;103181.56;5002277;28;20107;-72
2021/04/14 00:56:32;;;;;;;16.23;10.20;;;;;;;3.24;67.01;103178.19;4993737;28;20100;-72
2021/04/14 00:58:58;;;;;;;19.33;10.68;;;;;;;3.31;66.94;103182.31;5005072;28;20205;-72
2021/04/14 01:01:25;;;;;;;15.60;9.50;;;;;;;3.34;66.24;103173.59;4982082;28;20094;-72
2021/04/14 01:03:53;;;;;;;15.38;9.93;;;;;;;3.34;66.46;103169.25;5004246;28;20661;-72
2021/04/14 01:06:23;;;;;;;16.27;10.27;;;;;;;3.33;67.14;103177.06;5005077;28;20058;-72
2021/04/14 01:08:49;;;;;;;17.55;10.35;;;;;;;3.33;67.64;103164.09;5004671;28;20057;-72
2021/04/14 01:11:16;;;;;;;19.30;11.32;;;;;;;3.41;66.58;103167.38;5014651;28;20041;-72
2021/04/14 01:13:44;;;;;;;22.95;10.88;;;;;;;3.44;66.33;103169.00;5001327;28;20058;-72
2021/04/14 01:16:10;;;;;;;18.73;10.70;;;;;;;3.48;66.66;103174.06;4991127;28;20050;-72
2021/04/14 01:18:38;;;;;;;19.30;11.65;;;;;;;3.48;66.88;103166.28;4998825;28;20108;-72
2021/04/14 01:21:08;;;;;;;18.55;11.18;;;;;;;3.50;67.03;103172.28;4986600;28;20494;-72
2021/04/14 01:23:34;;;;;;;17.88;11.00;;;;;;;3.49;66.80;103174.91;4999459;28;20045;-72
2021/04/14 01:26:00;;;;;;;17.77;10.75;;;;;;;3.49;66.52;103170.59;4995483;28;20054;-71
2021/04/14 01:28:32;;;;;;;17.25;10.13;;;;;;;3.50;66.33;103168.84;5012487;28;20050;-71
2021/04/14 01:31:03;;;;;;;18.73;11.13;;;;;;;3.48;67.04;103176.66;4985209;28;20613;-72
2021/04/14 01:33:32;;;;;;;20.90;11.43;;;;;;;3.52;67.60;103169.63;4989799;28;20050;-72
2021/04/14 01:35:59;;;;;;;16.97;10.83;;;;;;;3.50;66.94;103177.47;4976651;28;20108;-71
2021/04/14 01:38:25;;;;;;;16.02;10.63;;;;;;;3.54;66.60;103173.88;4996632;28;20054;-71
2021/04/14 01:40:51;;;;;;;17.40;10.90;;;;;;;3.54;66.90;103176.47;4980915;28;20231;-71
2021/04/14 01:43:18;;;;;;;18.17;10.95;;;;;;;3.52;67.22;103165.28;5001740;28;20115;-71
2021/04/14 01:45:46;;;;;;;16.63;10.88;;;;;;;3.62;66.75;103172.81;5005203;28;20078;-72
2021/04/14 01:48:14;;;;;;;17.13;10.45;;;;;;;3.65;66.02;103173.59;4985177;28;20064;-71
2021/04/14 01:50:40;;;;;;;22.45;11.60;;;;;;;3.61;66.78;103171.09;5000234;28;20096;-71
2021/04/14 01:53:08;;;;;;;16.17;10.07;;;;;;;3.63;66.20;103172.78;4994844;28;20844;-71
2021/04/14 01:55:34;;;;;;;17.75;10.77;;;;;;;3.63;67.12;103166.75;5003322;28;20054;-71
2021/04/14 01:58:01;;;;;;;19.17;11.43;;;;;;;3.60;67.54;103174.63;4981747;28;20081;-71
2021/04/14 02:00:44;;;;;;;16.63;10.43;;;;;;;3.66;66.86;103174.44;4985814;28;20077;-72
2021/04/14 02:03:11;;;;;;;21.35;10.20;;;;;;;3.63;66.49;103165.00;5003328;28;20053;-71
2021/04/14 02:05:38;;;;;;;17.70;10.17;;;;;;;3.66;66.89;103166.66;4993838;28;20053;-71
2021/04/14 02:08:06;;;;;;;18.38;10.57;;;;;;;3.72;66.40;103166.47;5000111;28;20689;-71
2021/04/14 02:10:33;;;;;;;17.00;11.25;;;;;;;3.67;66.67;103166.63;4993534;28;20054;-71
2021/04/14 02:13:01;;;;;;;16.50;10.25;;;;;;;3.68;67.06;103172.66;5000845;28;20076;-71
2021/04/14 02:15:30;;;;;;;21.33;11.02;;;;;;;3.71;66.38;103164.78;4979573;28;20116;-72
2021/04/14 02:17:56;;;;;;;18.98;10.75;;;;;;;3.68;66.84;103163.09;5003118;28;20049;-72
2021/04/14 02:20:23;;;;;;;19.20;10.82;;;;;;;3.65;66.61;103159.78;4998260;28;20128;-74
2021/04/14 02:22:50;;;;;;;17.50;10.40;;;;;;;3.68;66.75;103162.25;4997044;28;20132;-72
2021/04/14 02:25:17;;;;;;;19.95;10.40;;;;;;;3.70;66.66;103157.88;5006315;28;20049;-71
2021/04/14 02:27:43;;;;;;;16.83;9.73;;;;;;;3.75;66.37;103164.66;5007375;28;20077;-71
2021/04/14 02:30:20;;;;;;;17.70;11.32;;;;;;;3.73;66.66;103163.84;5001300;28;20109;-71
2021/04/14 02:32:46;;;;;;;18.15;10.40;;;;;;;3.68;67.09;103154.47;5008694;28;20143;-71
2021/04/14 02:35:13;;;;;;;17.20;10.63;;;;;;;3.70;66.63;103150.94;5008643;28;20053;-71
2021/04/14 02:37:39;;;;;;;18.88;10.45;;;;;;;3.68;67.26;103149.28;5003519;28;20132;-71
2021/04/14 02:40:09;;;;;;;16.10;10.90;;;;;;;3.69;66.68;103145.81;4989828;28;20138;-71
2021/04/14 02:42:36;;;;;;;28.33;11.65;;;;;;;3.69;66.85;103140.63;5000683;28;20041;-71
2021/04/14 02:45:04;;;;;;;19.02;9.98;;;;;;;3.70;66.95;103144.91;4993165;28;20828;-71
2021/04/14 02:47:30;;;;;;;21.25;10.52;;;;;;;3.70;67.21;103140.56;4975765;28;20050;-71
2021/04/14 02:49:56;;;;;;;20.35;9.93;;;;;;;3.70;67.32;103150.94;4988608;28;20062;-72
2021/04/14 02:52:22;;;;;;;16.58;10.80;;;;;;;3.71;67.33;103147.47;5001687;28;20057;-71
2021/04/14 02:54:48;;;;;;;22.13;11.77;;;;;;;3.72;67.28;103141.38;4992378;28;20108;-71
2021/04/14 02:57:15;;;;;;;19.23;10.82;;;;;;;3.73;67.34;103144.81;5018018;28;20576;-71
2021/04/14 02:59:41;;;;;;;19.90;11.50;;;;;;;3.71;67.54;103138.84;5020552;28;20053;-71
2021/04/14 03:02:08;;;;;;;16.92;11.40;;;;;;;3.71;68.17;103139.66;4996887;28;20058;-71
2021/04/14 03:04:35;;;;;;;18.77;12.50;;;;;;;3.77;67.77;103136.06;4986273;28;20104;-72
2021/04/14 03:07:03;;;;;;;19.83;12.50;;;;;;;3.74;67.23;103130.94;4978921;28;20058;-71
2021/04/14 03:09:29;;;;;;;21.25;12.10;;;;;;;3.72;67.51;103114.56;5004250;28;20453;-72
2021/04/14 03:11:55;;;;;;;21.02;13.02;;;;;;;3.77;67.58;103123.06;5002176;28;20140;-71
2021/04/14 03:14:22;;;;;;;26.38;12.63;;;;;;;3.68;67.31;103120.72;4986879;28;20054;-72
2021/04/14 03:16:48;;;;;;;20.08;11.88;;;;;;;3.68;66.70;103112.94;5007001;28;20057;-72
2021/04/14 03:19:14;;;;;;;22.73;13.02;;;;;;;3.73;66.40;103119.72;4983754;28;20116;-72
2021/04/14 03:21:43;;;;;;;23.23;12.80;;;;;;;3.69;66.89;103117.25;5001927;28;20050;-71
2021/04/14 03:24:09;;;;;;;21.52;14.35;;;;;;;3.65;67.38;103115.66;4992027;28;20060;-72
2021/04/14 03:26:35;;;;;;;23.20;14.23;;;;;;;3.60;67.52;103113.16;5012555;28;20053;-72
2021/04/14 03:29:03;;;;;;;24.58;14.73;;;;;;;3.59;67.50;103110.63;5010164;28;20063;-72
2021/04/14 03:31:31;;;;;;;23.55;14.07;;;;;;;3.54;66.78;103101.22;4991365;28;20046;-72
2021/04/14 03:33:58;;;;;;;22.95;14.30;;;;;;;3.50;67.01;103107.41;5006684;28;20058;-72
2021/04/14 03:36:24;;;;;;;22.52;13.80;;;;;;;3.53;66.73;103115.09;5000967;28;20102;-72
2021/04/14 03:38:49;;;;;;;25.20;14.40;;;;;;;3.49;66.71;103116.09;5003663;28;20053;-72
2021/04/14 03:41:16;;;;;;;25.70;13.38;;;;;;;3.45;66.63;103117.06;4991568;28;20614;-74
2021/04/14 03:43:42;;;;;;;21.95;12.90;;;;;;;3.47;65.77;103117.00;5006520;28;20817;-72
2021/04/14 03:46:08;;;;;;;21.75;13.43;;;;;;;3.34;66.49;103107.00;4990767;28;20507;-72
2021/04/14 03:48:35;;;;;;;27.73;13.80;;;;;;;3.28;67.04;103111.50;4988126;28;20410;-72
2021/04/14 03:51:01;;;;;;;23.85;14.68;;;;;;;3.14;67.81;103115.34;4996313;28;20064;-72
2021/04/14 03:53:30;;;;;;;21.95;13.38;;;;;;;3.06;67.68;103113.81;4976431;28;20076;-72
2021/04/14 03:56:06;;;;;;;26.58;13.43;;;;;;;3.00;68.43;103117.47;4989142;28;20545;-73
2021/04/14 03:58:34;;;;;;;22.95;14.07;;;;;;;2.94;68.55;103117.59;4983084;28;20065;-72
2021/04/14 04:01:09;;;;;;;22.40;14.23;;;;;;;2.89;69.00;103116.88;4990653;28;20053;-73
2021/04/14 04:03:35;;;;;;;23.13;14.57;;;;;;;2.88;69.10;103117.75;4980132;28;20057;-71
2021/04/14 04:06:03;;;;;;;30.35;15.23;;;;;;;2.91;69.13;103120.28;5000519;28;20053;-73
2021/04/14 04:08:29;;;;;;;25.40;15.57;;;;;;;2.90;68.92;103115.97;5012822;28;20065;-71
2021/04/14 04:10:55;;;;;;;21.92;15.15;;;;;;;2.89;69.08;103115.13;5002779;28;20058;-71
2021/04/14 04:13:27;;;;;;;24.25;15.43;;;;;;;2.95;69.28;103109.78;5001165;28;20150;-73
2021/04/14 04:15:53;;;;;;;22.65;14.68;;;;;;;2.96;68.75;103103.72;5010854;28;20081;-72
2021/04/14 04:18:19;;;;;;;19.80;13.50;;;;;;;2.99;68.22;103105.38;5005008;28;20065;-73
2021/04/14 04:20:46;;;;;;;23.52;14.00;;;;;;;2.90;68.46;103103.88;4994379;28;20457;-72
2021/04/14 04:23:12;;;;;;;22.08;14.77;;;;;;;2.94;67.98;103121.06;4988999;28;20049;-72
2021/04/14 04:25:39;;;;;;;23.20;14.63;;;;;;;2.89;68.00;103109.94;4988618;28;20054;-71
2021/04/14 04:28:06;;;;;;;26.73;15.23;;;;;;;2.92;67.90;103128.03;4987208;28;20688;-72
2021/04/14 04:30:32;;;;;;;26.25;14.65;;;;;;;2.89;68.70;103133.28;4992631;28;20058;-72
2021/04/14 04:32:59;;;;;;;23.00;14.18;;;;;;;2.94;69.61;103139.22;4982544;28;20061;-71
2021/04/14 04:35:26;;;;;;;23.67;14.43;;;;;;;2.95;69.10;103127.94;4994788;28;20061;-74
2021/04/14 04:37:52;;;;;;;23.85;15.77;;;;;;;2.97;69.78;103135.66;4991393;28;20072;-71
2021/04/14 04:40:19;;;;;;;29.80;15.90;;;;;;;3.06;69.10;103137.16;4998671;28;20411;-71
2021/04/14 04:42:47;;;;;;;28.45;15.30;;;;;;;3.09;68.94;103132.75;4998511;28;20132;-72
2021/04/14 04:45:16;;;;;;;25.97;14.37;;;;;;;3.11;69.33;103136.16;4993154;28;20050;-71
2021/04/14 04:47:42;;;;;;;26.13;12.88;;;;;;;3.17;68.82;103132.53;4995914;28;20283;-71
2021/04/14 04:50:09;;;;;;;25.90;13.35;;;;;;;3.25;68.60;103140.13;4998181;28;20546;-72
2021/04/14 04:52:35;;;;;;;24.33;13.05;;;;;;;3.25;68.96;103129.75;5003472;28;20100;-72
2021/04/14 04:55:03;;;;;;;21.92;12.38;;;;;;;3.28;67.96;103138.28;4998588;28;20104;-72
2021/04/14 04:57:29;;;;;;;24.55;11.95;;;;;;;3.26;67.89;103126.28;4987728;28;20053;-72
2021/04/14 04:59:55;;;;;;;29.85;11.50;;;;;;;3.30;67.89;103136.50;5002283;28;20673;-72
2021/04/14 05:02:21;;;;;;;28.52;11.48;;;;;;;3.31;67.33;103135.63;4988671;28;20112;-72
2021/04/14 05:04:48;;;;;;;21.65;11.52;;;;;;;3.25;67.31;103134.94;4986537;28;20061;-72
2021/04/14 05:07:14;;;;;;;22.05;11.68;;;;;;;3.30;67.36;103144.28;4966204;28;20053;-72
2021/04/14 05:09:40;;;;;;;21.42;11.15;;;;;;;3.29;67.19;103137.41;4988013;28;20054;-71
2021/04/14 05:12:06;;;;;;;24.52;12.35;;;;;;;3.27;68.07;103139.16;4986763;28;20065;-71
2021/04/14 05:14:32;;;;;;;26.67;11.52;;;;;;;3.35;68.00;103147.63;5017513;28;20049;-72
2021/04/14 05:16:58;;;;;;;26.52;11.45;;;;;;;3.41;68.29;103145.72;4999612;28;20061;-72
2021/04/14 05:19:24;;;;;;;29.23;11.75;;;;;;;3.44;68.44;103154.28;4985178;28;20517;-71
2021/04/14 05:21:51;;;;;;;28.35;11.25;;;;;;;3.47;68.07;103149.03;4985712;28;20451;-71
2021/04/14 05:24:17;;;;;;;22.70;10.40;;;;;;;3.50;68.26;103156.69;4993883;28;20560;-71
2021/04/14 05:26:43;;;;;;;24.05;10.93;;;;;;;3.58;67.60;103156.50;4986332;28;20084;-71
2021/04/14 05:29:09;;;;;;;37.20;12.45;;;;;;;3.62;67.40;103160.69;4973361;28;20064;-72
2021/04/14 05:31:40;;;;;;;20.88;10.55;;;;;;;3.64;67.97;103158.06;4978700;28;20069;-71
2021/04/14 05:34:08;;;;;;;25.40;11.75;;;;;;;3.70;67.99;103163.06;4992767;28;20494;-72
2021/04/14 05:36:34;;;;;;;21.85;10.65;;;;;;;3.76;67.67;103163.75;4970775;28;20743;-70
2021/04/14 05:39:01;;;;;;;27.05;12.15;;;;;;;3.84;68.13;103166.13;4985857;28;20548;-71
2021/04/14 05:41:27;;;;;;;26.55;11.85;;;;;;;3.94;67.90;103172.75;4991052;28;20117;-71
2021/04/14 05:43:53;;;;;;;21.92;11.70;;;;;;;4.02;68.31;103174.25;4999385;28;20670;-71
2021/04/14 05:46:21;;;;;;;24.08;12.13;;;;;;;4.04;69.28;103175.94;5006423;28;20061;-71
2021/04/14 05:48:49;;;;;;;25.75;11.65;;;;;;;4.03;68.79;103174.22;4987448;28;20058;-71
2021/04/14 05:51:25;;;;;;;30.33;13.17;;;;;;;4.00;68.13;103171.72;4994669;28;20081;-70
2021/04/14 05:53:52;;;;;;;32.40;12.95;;;;;;;4.05;68.02;103175.00;4981577;28;20299;-71
2021/04/14 05:56:20;;;;;;;35.05;15.15;;;;;;;4.09;67.95;103178.38;4985978;28;20112;-71
2021/04/14 05:58:47;;;;;;;29.30;13.60;;;;;;;4.17;68.30;103181.59;4989435;28;20123;-71
2021/04/14 06:01:16;;;;;;;31.92;13.60;;;;;;;4.27;68.11;103183.03;4981758;28;20065;-71
2021/04/14 06:03:43;;;;;;;31.10;13.90;;;;;;;4.33;67.66;103181.97;5008083;28;20509;-71
2021/04/14 06:06:09;;;;;;;29.73;14.40;;;;;;;4.36;67.72;103182.72;4998043;28;20106;-71
2021/04/14 06:08:36;;;;;;;36.47;14.85;;;;;;;4.48;67.60;103185.84;5000729;28;20065;-72
2021/04/14 06:11:03;;;;;;;31.23;14.40;;;;;;;4.56;66.83;103186.44;5014166;28;20080;-71
2021/04/14 06:13:30;;;;;;;35.08;14.35;;;;;;;4.61;66.76;103189.75;5009148;28;20139;-71
2021/04/14 06:15:56;;;;;;;27.95;13.75;;;;;;;4.70;66.78;103194.63;4985700;28;20395;-71
2021/04/14 06:18:22;;;;;;;33.25;15.07;;;;;;;4.75;66.47;103187.53;4997501;28;20065;-71
2021/04/14 06:20:48;;;;;;;29.55;14.88;;;;;;;4.81;66.44;103198.66;4983742;28;20054;-71
2021/04/14 06:23:17;;;;;;;31.98;13.73;;;;;;;4.87;65.69;103188.88;5000617;28;20501;-71
2021/04/14 06:25:57;;;;;;;33.63;12.98;;;;;;;4.94;65.57;103198.19;4979296;28;20118;-72
2021/04/14 06:28:25;;;;;;;43.58;15.68;;;;;;;5.01;65.76;103192.78;4983321;28;20132;-71
2021/04/14 06:30:51;;;;;;;40.10;13.98;;;;;;;5.06;65.49;103196.94;4989906;28;20085;-71
2021/04/14 06:33:20;;;;;;;33.40;14.15;;;;;;;5.10;66.07;103197.69;4983681;28;20116;-71
2021/04/14 06:35:47;;;;;;;31.65;13.55;;;;;;;5.13;65.29;103193.19;5004481;28;20492;-72
2021/04/14 06:38:20;;;;;;;30.80;13.98;;;;;;;5.23;65.79;103198.09;4983980;28;20429;-72
2021/04/14 06:43:42;;;;;;;27.90;13.50;;;;;;;5.25;65.09;103204.09;4993232;28;20387;-71
2021/04/14 06:46:31;;;;;;;29.00;14.20;;;;;;;5.25;65.19;103207.56;5005381;28;20667;-71
2021/04/14 06:49:20;;;;;;;27.38;13.90;;;;;;;5.27;64.76;103207.47;4999310;28;20168;-71
2021/04/14 06:51:58;;;;;;;35.15;13.52;;;;;;;5.24;64.10;103207.59;5001135;28;20139;-71
2021/04/14 06:54:48;;;;;;;29.38;13.10;;;;;;;5.23;64.59;103211.94;4977344;28;20101;-72
2021/04/14 06:57:23;;;;;;;35.08;14.90;;;;;;;5.30;64.85;103210.84;5003430;28;20457;-71
2021/04/14 07:00:03;;;;;;;29.58;14.85;;;;;;;5.33;64.67;103204.66;5004721;28;20144;-71
2021/04/14 07:03:01;;;;;;;35.63;15.30;;;;;;;5.40;65.48;103211.34;4978377;28;20054;-71
2021/04/14 07:05:33;;;;;;;33.60;15.38;;;;;;;5.45;64.93;103205.97;5004869;28;20050;-71
2021/04/14 07:08:02;;;;;;;34.83;16.00;;;;;;;5.43;65.33;103206.06;5005260;28;20598;-71
2021/04/14 07:10:32;;;;;;;30.40;14.55;;;;;;;5.52;65.44;103205.72;4989534;28;20081;-72
2021/04/14 07:13:05;;;;;;;34.80;15.82;;;;;;;5.59;65.11;103203.75;4997332;28;20061;-71
2021/04/14 07:15:32;;;;;;;34.67;15.50;;;;;;;5.60;65.10;103207.19;5003262;28;20492;-73
2021/04/14 07:18:05;;;;;;;35.88;16.65;;;;;;;5.67;64.73;103206.09;4996711;28;20058;-71
2021/04/14 07:20:47;;;;;;;50.75;16.38;;;;;;;5.72;64.60;103207.63;4994779;28;20053;-71
2021/04/14 07:23:26;;;;;;;34.85;13.60;;;;;;;5.80;64.38;103206.47;4981891;28;20104;-71
2021/04/14 07:26:13;;;;;;;27.23;13.57;;;;;;;5.95;64.34;103203.31;4984408;28;20061;-71
2021/04/14 07:29:13;;;;;;;30.60;14.55;;;;;;;6.14;63.99;103206.09;4966322;28;20655;-71
2021/04/14 07:31:56;;;;;;;33.40;13.93;;;;;;;5.98;62.48;103203.22;4988958;28;20057;-71
2021/04/14 07:34:38;;;;;;;29.63;13.68;;;;;;;6.15;62.39;103207.78;4980922;28;20149;-71
2021/04/14 07:37:12;;;;;;;29.40;14.02;;;;;;;6.30;62.62;103201.13;4980316;28;20058;-71
2021/04/14 07:39:49;;;;;;;31.17;13.07;;;;;;;6.39;62.42;103205.13;4997015;28;20058;-71
2021/04/14 07:42:25;;;;;;;32.97;13.98;;;;;;;6.51;62.08;103208.09;4997472;28;20494;-72
2021/04/14 07:45:29;;;;;;;27.48;13.40;;;;;;;6.61;61.45;103207.75;5006231;28;20057;-72
2021/04/14 07:48:03;;;;;;;31.05;12.85;;;;;;;6.60;61.13;103206.03;5002542;28;20061;-71
2021/04/14 07:50:42;;;;;;;32.40;13.20;;;;;;;6.61;60.38;103212.94;5002215;28;20108;-72
2021/04/14 07:53:39;;;;;;;30.45;14.38;;;;;;;6.59;61.25;103213.00;4985225;28;20062;-72
2021/04/14 07:56:13;;;;;;;25.52;13.07;;;;;;;6.60;60.85;103208.63;4998415;28;20465;-72
2021/04/14 07:58:42;;;;;;;30.33;13.40;;;;;;;6.65;60.97;103206.69;4986098;28;20058;-72
2021/04/14 08:01:12;;;;;;;30.92;15.38;;;;;;;6.66;62.25;103206.63;4987759;28;20057;-72
2021/04/14 08:03:38;;;;;;;31.67;16.13;;;;;;;6.69;62.05;103211.72;4983862;28;20057;-72
2021/04/14 08:06:26;;;;;;;32.85;15.73;;;;;;;6.72;62.59;103214.22;4983951;28;20050;-71
2021/04/14 08:08:53;;;;;;;33.00;14.13;;;;;;;6.82;61.93;103212.06;4982185;28;20124;-71
2021/04/14 08:11:32;;;;;;;28.95;14.02;;;;;;;6.88;61.20;103198.78;5004282;28;20065;-71
2021/04/14 08:14:22;;;;;;;26.48;13.63;;;;;;;6.89;60.89;103205.66;4992522;28;20128;-71
2021/04/14 08:16:52;;;;;;;32.20;13.80;;;;;;;6.93;61.39;103212.47;4966085;28;20050;-71
2021/04/14 08:19:27;;;;;;;33.63;14.57;;;;;;;6.96;61.38;103200.19;4988046;28;20070;-71
2021/04/14 08:21:55;;;;;;;33.70;15.05;;;;;;;6.89;61.50;103205.66;4987243;28;20139;-71
2021/04/14 08:24:31;;;;;;;36.60;14.63;;;;;;;6.92;62.58;103202.09;5005867;28;20478;-71
2021/04/14 08:27:02;;;;;;;34.42;15.50;;;;;;;7.05;62.41;103202.41;4987057;28;20061;-72
2021/04/14 08:29:29;;;;;;;31.10;15.80;;;;;;;7.38;62.65;103205.34;5004777;28;20147;-71
2021/04/14 08:31:57;;;;;;;30.23;14.70;;;;;;;7.60;61.48;103193.94;4994506;28;20078;-72
2021/04/14 08:34:33;;;;;;;35.00;14.82;;;;;;;7.73;58.59;103200.31;5003900;28;20504;-71
2021/04/14 08:37:04;;;;;;;30.38;14.98;;;;;;;8.18;59.84;103201.72;4988019;28;20058;-71
2021/04/14 08:39:36;;;;;;;26.95;14.10;;;;;;;8.51;58.64;103204.53;4987194;28;20089;-71
2021/04/14 08:42:25;;;;;;;29.30;14.40;;;;;;;8.56;58.12;103208.69;4988657;28;20501;-71
2021/04/14 08:45:12;;;;;;;30.98;14.50;;;;;;;8.57;56.72;103208.63;4979989;28;20580;-71
2021/04/14 08:47:46;;;;;;;26.92;14.45;;;;;;;8.45;56.21;103206.59;5001733;28;20050;-72
2021/04/14 08:50:18;;;;;;;37.40;16.05;;;;;;;8.30;56.80;103213.38;4981704;28;20057;-71
2021/04/14 08:52:50;;;;;;;33.83;16.20;;;;;;;8.36;56.81;103218.31;5004326;28;20886;-72
2021/04/14 08:55:19;;;;;;;27.98;15.18;;;;;;;7.97;56.68;103213.19;5002052;28;20694;-72
2021/04/14 08:57:45;;;;;;;27.50;14.68;;;;;;;7.95;56.01;103212.41;4996707;28;20054;-72
2021/04/14 09:00:12;;;;;;;31.27;15.90;;;;;;;7.86;57.06;103208.44;4994655;28;20356;-71
2021/04/14 09:02:42;;;;;;;27.48;14.77;;;;;;;7.78;56.93;103219.25;5005030;28;20131;-71
2021/04/14 09:05:14;;;;;;;26.50;14.32;;;;;;;7.71;55.29;103217.84;5001554;28;20058;-71
2021/04/14 09:07:44;;;;;;;26.88;13.80;;;;;;;7.67;55.88;103216.28;5003734;28;20046;-72
2021/04/14 09:10:28;;;;;;;27.95;14.95;;;;;;;7.69;55.47;103220.50;4988244;28;20111;-72
2021/04/14 09:12:56;;;;;;;29.77;15.32;;;;;;;7.52;54.23;103213.41;4993879;28;20050;-72
2021/04/14 09:15:22;;;;;;;26.30;13.97;;;;;;;7.77;52.97;103219.31;5002336;28;20073;-72
2021/04/14 09:18:01;;;;;;;29.67;15.27;;;;;;;7.93;53.38;103213.31;4999967;28;20298;-72
2021/04/14 09:20:31;;;;;;;29.73;14.82;;;;;;;8.11;53.10;103200.31;4999792;28;20058;-72
2021/04/14 09:23:04;;;;;;;27.42;15.05;;;;;;;8.15;54.96;103208.84;5005055;28;20038;-72
2021/04/14 09:25:45;;;;;;;32.22;16.38;;;;;;;7.83;55.40;103203.38;5010935;28;20500;-72
2021/04/14 09:28:26;;;;;;;29.85;16.92;;;;;;;7.91;54.23;103188.19;4977295;28;20108;-72
2021/04/14 09:30:56;;;;;;;29.35;14.68;;;;;;;7.96;54.08;103191.44;5006062;28;20045;-72
2021/04/14 09:33:47;;;;;;;29.15;15.70;;;;;;;8.18;53.23;103196.50;5003706;28;20133;-72
2021/04/14 09:36:28;;;;;;;31.55;16.98;;;;;;;8.52;52.55;103187.06;5003243;28;20553;-71
2021/04/14 09:39:29;;;;;;;32.42;17.30;;;;;;;8.60;52.45;103190.13;5005763;28;20049;-71
2021/04/14 09:41:56;;;;;;;31.10;17.02;;;;;;;8.36;53.47;103183.47;4990040;28;20065;-72
2021/04/14 09:44:59;;;;;;;36.47;17.90;;;;;;;8.16;53.86;103195.72;5014698;28;20049;-73
2021/04/14 09:47:25;;;;;;;29.40;17.23;;;;;;;8.24;54.42;103195.38;4982528;28;20085;-72
2021/04/14 09:49:53;;;;;;;35.83;18.05;;;;;;;8.17;55.52;103194.78;5005043;28;20816;-72
2021/04/14 09:52:53;;;;;;;36.35;17.98;;;;;;;7.86;54.97;103201.47;4990574;28;20569;-72
2021/04/14 09:55:46;;;;;;;32.22;17.30;;;;;;;7.42;56.18;103191.22;4976932;28;20054;-71
2021/04/14 09:58:29;;;;;;;37.75;18.77;;;;;;;7.44;56.28;103199.00;4977527;28;20090;-72
2021/04/14 10:01:09;;;;;;;34.88;18.60;;;;;;;7.38;55.70;103199.28;5000070;28;20697;-72
2021/04/14 10:03:38;;;;;;;36.38;19.33;;;;;;;7.42;56.63;103195.63;4988954;28;20470;-72
2021/04/14 10:06:12;;;;;;;38.22;17.40;;;;;;;7.40;56.83;103198.28;4992649;28;20046;-71
2021/04/14 10:08:41;;;;;;;33.03;17.20;;;;;;;6.95;57.18;103185.47;4994067;28;20160;-72
2021/04/14 10:11:07;;;;;;;32.13;15.90;;;;;;;7.25;58.37;103186.78;4981468;28;20667;-71
2021/04/14 10:13:35;;;;;;;36.17;18.05;;;;;;;7.27;58.50;103205.81;4982570;28;20050;-72
2021/04/14 10:16:02;;;;;;;35.27;18.40;;;;;;;7.19;58.58;103196.63;4980905;28;20050;-72
2021/04/14 10:18:31;;;;;;;36.47;18.80;;;;;;;7.13;59.34;103195.09;4996071;28;20344;-72
2021/04/14 10:21:22;;;;;;;37.65;18.58;;;;;;;7.23;58.97;103191.22;4997034;28;20053;-72
2021/04/14 10:24:01;;;;;;;40.35;18.35;;;;;;;7.12;57.41;103201.25;4969125;28;20062;-71
2021/04/14 10:26:34;;;;;;;32.33;16.70;;;;;;;7.05;58.42;103208.47;4979468;28;20049;-71
2021/04/14 10:29:07;;;;;;;26.88;13.85;;;;;;;6.87;58.38;103209.28;4987550;28;20060;-71
2021/04/14 10:31:35;;;;;;;31.67;16.17;;;;;;;6.88;58.69;103214.44;4996996;28;20050;-72
2021/04/14 10:34:27;;;;;;;30.77;15.55;;;;;;;6.89;60.50;103210.88;5004022;28;20399;-71
2021/04/14 10:36:54;;;;;;;32.55;14.43;;;;;;;6.97;60.40;103223.63;4994690;28;20140;-72
2021/04/14 10:39:28;;;;;;;24.25;12.18;;;;;;;6.87;59.25;103228.38;5001026;28;20804;-72
2021/04/14 10:41:55;;;;;;;20.95;10.48;;;;;;;6.49;58.79;103217.75;4984859;28;20058;-72
2021/04/14 10:44:29;;;;;;;23.50;10.75;;;;;;;6.21;60.35;103211.91;4983143;28;20053;-72
2021/04/14 10:47:06;;;;;;;22.88;12.48;;;;;;;6.47;63.57;103208.28;5003504;28;20049;-73
2021/04/14 10:49:36;;;;;;;24.88;13.25;;;;;;;6.49;62.85;103190.81;4977810;28;20049;-73
2021/04/14 10:52:19;;;;;;;29.25;12.90;;;;;;;6.48;63.77;103194.31;4982497;28;20049;-72
2021/04/14 10:54:52;;;;;;;23.80;12.88;;;;;;;6.44;64.49;103192.75;4998128;28;20057;-72
2021/04/14 10:57:25;;;;;;;23.50;12.98;;;;;;;6.49;63.91;103188.22;4982528;28;20050;-72
2021/04/14 10:59:53;;;;;;;30.08;13.85;;;;;;;6.57;65.89;103193.97;4991147;28;20593;-73
2021/04/14 11:02:24;;;;;;;24.42;12.45;;;;;;;6.54;63.80;103183.66;5003036;28;20057;-74
2021/04/14 11:04:52;;;;;;;25.08;12.73;;;;;;;6.67;65.41;103182.25;4977693;28;20112;-73
2021/04/14 11:07:22;;;;;;;23.67;12.40;;;;;;;6.72;65.38;103163.78;5003235;28;20512;-74
2021/04/14 11:09:52;;;;;;;21.95;12.40;;;;;;;6.74;62.68;103175.00;4987771;28;20197;-72
2021/04/14 11:12:22;;;;;;;24.33;12.95;;;;;;;6.87;61.82;103170.13;4997011;28;20065;-73
2021/04/14 11:14:52;;;;;;;22.85;12.18;;;;;;;6.88;61.42;103163.97;5005270;28;20074;-72
2021/04/14 11:17:28;;;;;;;25.13;13.10;;;;;;;7.13;63.31;103156.84;4990544;28;20104;-72
2021/04/14 11:20:06;;;;;;;25.13;12.70;;;;;;;7.47;61.00;103165.78;5004158;28;20465;-71
2021/04/14 11:22:43;;;;;;;24.00;14.55;;;;;;;8.00;62.98;103159.00;4989274;28;20060;-71
2021/04/14 11:25:21;;;;;;;22.70;13.35;;;;;;;8.60;62.64;103144.81;5004509;28;20061;-70
2021/04/14 11:28:11;;;;;;;21.50;12.52;;;;;;;8.72;60.64;103146.81;5001775;28;20077;-70
2021/04/14 11:30:54;;;;;;;22.48;12.48;;;;;;;9.05;61.64;103146.88;4995559;28;20061;-70
2021/04/14 11:33:33;;;;;;;25.48;12.40;;;;;;;8.84;56.58;103137.50;4986714;28;20072;-70
2021/04/14 11:35:59;;;;;;;18.33;10.88;;;;;;;8.87;56.60;103140.81;5003653;28;20060;-70
2021/04/14 11:38:42;;;;;;;20.23;11.35;;;;;;;8.77;56.86;103128.28;5004895;28;20050;-70